Latest Weather Observations for Portland Airport

IDV60801

Issued at 7:31 am EST Sunday 26 April 2015 (issued every 30 minutes, with the page automatically refreshed every 10 minutes)

About weather observations | Map of weather stations | Latest weather observations for VIC | Other Formats
Station Details ID: 090171 Name: CASHMORE AIRPORT Lat: -38.31 Lon: 141.47 Height: 80.9 m
Data from the previous 72 hours. | See also: Recent months at Portland Airport
Date/Time
EST
Temp
°C
App
Temp
°C
Dew
Point
Rel
Hum
%
Delta-T
°C
Wind Press
QNH
hPa
Press
MSL
hPa
Rain
since 9 am
mm
Dir
 
Spd
km/h
Gust
km/h
Spd
kts
Gust
kts
26/07:30am 10.2 7.6 9.3 94 0.4 SW 13 20 7 11 1020.6 1020.6 9.4
26/07:29am 10.2 7.6 9.3 94 0.4 SW 13 17 7 9 1020.6 1020.6 9.4
26/07:19am 10.3 7.3 9.4 94 0.4 SW 15 28 8 15 1020.4 1020.4 9.2
26/07:12am 10.4 7.4 9.3 93 0.5 SW 15 24 8 13 1020.4 1020.4 9.2
26/07:02am 10.4 6.9 8.8 90 0.8 SW 17 28 9 15 1020.3 1020.3 8.8
26/07:00am 10.5 7.4 8.9 90 0.8 SW 15 28 8 15 1020.2 1020.2 8.8
26/06:57am 10.7 8.0 9.0 89 0.8 SW 13 19 7 10 1020.1 1020.1 8.6
26/06:30am 10.6 8.1 8.4 86 1.1 SSW 11 19 6 10 1019.8 1019.8 8.2
26/06:00am 10.3 7.4 8.2 87 1.0 SW 13 20 7 11 1019.7 1019.7 8.2
26/05:30am 10.2 7.4 8.6 90 0.8 SW 13 20 7 11 1019.7 1019.7 8.2
26/05:00am 10.3 7.7 9.2 93 0.5 SW 13 19 7 10 1019.5 1019.5 8.2
26/04:48am 10.1 7.4 9.0 93 0.5 SW 13 19 7 10 1019.4 1019.4 8.2
26/04:46am 10.1 7.4 9.0 93 0.5 SSW 13 20 7 11 1019.4 1019.4 8.2
26/04:34am 10.6 7.6 9.4 92 0.6 SSW 15 22 8 12 1019.4 1019.4 8.2
26/04:30am 10.7 7.7 9.3 91 0.7 SSW 15 22 8 12 1019.4 1019.4 8.2
26/04:25am 10.7 8.0 9.1 90 0.8 SSW 13 22 7 12 1019.4 1019.4 7.6
26/04:00am 10.0 7.1 8.3 89 0.8 SW 13 22 7 12 1019.1 1019.1 7.0
26/03:45am 10.2 8.6 8.8 91 0.7 SSW 7 13 4 7 1019.0 1019.0 7.0
26/03:30am 10.5 8.1 8.6 88 0.9 S 11 19 6 10 1019.1 1019.1 6.8
26/03:00am 11.1 7.6 7.2 77 1.9 SSW 15 24 8 13 1019.0 1019.0 6.8
26/02:30am 11.0 7.0 8.4 84 1.3 SW 19 30 10 16 1019.0 1019.0 6.8
26/02:00am 11.2 8.0 6.7 74 2.1 SSW 13 20 7 11 1018.7 1018.7 6.8
26/01:30am 11.0 8.2 7.1 77 1.9 SSW 11 24 6 13 1018.7 1018.7 6.8
26/01:00am 11.4 7.7 7.9 79 1.7 S 17 28 9 15 1018.7 1018.7 6.8
26/12:30am 11.5 7.9 6.8 73 2.2 SSW 15 22 8 12 1018.5 1018.5 6.8
26/12:00am 11.4 8.3 7.1 75 2.1 SSW 13 20 7 11 1018.4 1018.4 6.8
 
Date/Time
EST
Temp
°C
App
Temp
°C
Dew
Point
Rel
Hum
%
Delta-T
°C
Wind Press
QNH
hPa
Press
MSL
hPa
Rain
since 9 am
mm
Dir
 
Spd
km/h
Gust
km/h
Spd
kts
Gust
kts
25/11:30pm 11.5 8.2 8.0 79 1.7 S 15 24 8 13 1018.5 1018.5 6.8
25/11:00pm 10.9 7.8 7.2 78 1.8 SSW 13 20 7 11 1018.4 1018.4 6.8
25/10:30pm 10.5 7.8 8.8 89 0.8 SSE 13 24 7 13 1018.5 1018.5 6.8
25/10:00pm 11.2 8.8 8.6 84 1.3 SSE 11 17 6 9 1018.4 1018.4 6.6
25/09:30pm 10.7 7.7 7.9 83 1.4 SSW 13 22 7 12 1018.1 1018.1 6.6
25/09:00pm 11.4 8.4 7.5 77 1.9 S 13 22 7 12 1017.9 1017.9 6.6
25/08:30pm 11.5 7.7 7.4 76 2.0 S 17 26 9 14 1017.6 1017.6 6.6
25/08:00pm 11.6 8.0 6.7 72 2.3 S 15 32 8 17 1017.4 1017.4 6.6
25/07:30pm 12.0 8.2 7.7 75 2.1 S 17 30 9 16 1017.0 1016.9 6.6
25/07:00pm 12.0 7.7 7.1 72 2.4 SSW 19 28 10 15 1016.8 1016.7 6.6
25/06:30pm 12.0 8.7 7.9 76 2.0 S 15 24 8 13 1016.3 1016.2 6.6
25/06:00pm 12.2 9.1 8.7 79 1.7 S 15 24 8 13 1015.7 1015.6 6.6
25/05:30pm 12.3 8.8 8.8 79 1.8 S 17 26 9 14 1015.2 1015.1 6.6
25/05:00pm 12.5 8.8 9.3 81 1.6 S 19 28 10 15 1014.8 1014.7 6.6
25/04:30pm 12.3 9.3 10.5 89 0.9 S 17 24 9 13 1014.5 1014.4 6.6
25/04:09pm 12.0 8.7 10.9 93 0.6 S 19 32 10 17 1014.3 1014.2 6.6
25/04:01pm 11.9 8.4 10.8 93 0.6 S 20 32 11 17 1014.2 1014.1 6.6
25/04:00pm 11.9 8.1 11.0 94 0.5 S 22 32 12 17 1014.2 1014.1 6.6
25/03:30pm 12.4 9.2 11.1 92 0.7 SSE 19 33 10 18 1013.7 1013.6 6.2
25/03:28pm 12.5 9.3 11.2 92 0.7 SSE 19 33 10 18 1013.7 1013.6 6.2
25/03:20pm 12.4 8.1 10.6 89 0.9 SSE 24 35 13 19 1013.6 1013.5 5.8
25/03:00pm 13.8 10.5 11.5 86 1.2 SSE 20 32 11 17 1013.2 1013.1 5.4
25/02:39pm 13.8 10.5 11.5 86 1.2 SSE 20 33 11 18 1012.9 1012.8 5.4
25/02:30pm 13.5 10.2 11.7 89 1.0 SSE 20 33 11 18 1012.8 1012.7 5.4
25/02:00pm 13.2 10.1 11.6 90 0.9 SSE 19 30 10 16 1012.5 1012.4 5.4
25/01:59pm 13.1 10.0 11.5 90 0.9 SSE 19 30 10 16 1012.5 1012.4 5.4
25/01:43pm 13.5 10.6 12.2 92 0.7 SSE 19 32 10 17 1012.4 1012.3 5.4
25/01:33pm 13.3 10.1 11.9 91 0.8 SSE 20 41 11 22 1012.4 1012.3 5.4
25/01:30pm 13.3 9.7 11.7 90 0.9 SSE 22 41 12 22 1012.2 1012.2 5.4
25/01:00pm 14.4 11.0 11.4 82 1.6 SSE 20 30 11 16 1011.9 1011.9 5.0
25/12:30pm 14.3 11.1 12.0 86 1.2 SSE 20 30 11 16 1011.8 1011.8 5.0
25/12:00pm 13.1 9.9 11.8 92 0.7 SE 20 32 11 17 1011.6 1011.6 5.0
25/11:44am 12.7 9.5 11.9 95 0.4 SSE 20 28 11 15 1011.6 1011.6 5.0
25/11:37am 12.3 9.0 11.5 95 0.4 SSE 20 35 11 19 1011.5 1011.5 5.0
25/11:30am 12.3 9.0 11.7 96 0.3 SSE 20 33 11 18 1011.5 1011.5 5.0
25/11:08am 12.5 9.3 11.9 96 0.3 SE 20 33 11 18 1011.2 1011.2 3.8
25/11:00am 12.4 9.1 11.6 95 0.4 SSE 20 33 11 18 1011.2 1011.2 3.8
25/10:39am 12.8 10.2 11.9 94 0.5 SSE 17 24 9 13 1010.9 1010.9 1.0
25/10:30am 13.1 11.7 12.2 94 0.5 SSE 11 19 6 10 1010.7 1010.7 0.4
25/10:27am 13.0 11.6 12.1 94 0.5 SSE 11 19 6 10 1010.7 1010.7 0.2
25/10:00am 12.9 10.3 12.0 94 0.5 S 17 26 9 14 1010.4 1010.4 0.2
25/09:51am 13.3 11.6 12.4 94 0.5 S 13 24 7 13 1010.3 1010.3 0.2
25/09:47am 13.4 12.1 12.5 94 0.5 S 11 17 6 9 1010.2 1010.2 0.2
25/09:36am 13.3 12.0 12.4 94 0.5 SSW 11 17 6 9 1010.2 1010.2 0.0
25/09:30am 13.2 12.1 12.1 93 0.6 SSW 9 17 5 9 1010.1 1010.1 0.0
25/09:27am 13.2 12.5 12.1 93 0.6 SSW 7 15 4 8 1010.1 1010.1 0.0
25/09:07am 13.1 11.6 12.0 93 0.6 SSW 11 17 6 9 1010.0 1010.0 0.0
25/09:00am 13.0 11.9 11.9 93 0.6 SSW 9 17 5 9 1009.8 1009.8 11.4
25/08:40am 12.7 11.9 11.8 94 0.5 SW 7 9 4 5 1009.6 1009.6 11.4
25/08:30am 12.4 11.2 11.5 94 0.5 SW 9 13 5 7 1009.5 1009.5 11.4
25/08:21am 12.3 11.0 11.4 94 0.5 SW 9 13 5 7 1009.4 1009.4 11.4
25/08:00am 11.9 10.9 11.1 95 0.4 SW 7 11 4 6 1009.1 1009.1 11.4
25/07:30am 10.3 9.5 9.5 95 0.4 SW 4 9 2 5 1008.8 1008.8 11.4
25/07:00am 9.7 8.1 8.9 95 0.4 SW 7 11 4 6 1008.3 1008.3 11.4
25/06:32am 9.8 7.9 9.0 95 0.4 W 9 9 5 5 1008.0 1008.0 11.4
25/06:30am 9.7 7.8 8.9 95 0.4 W 9 11 5 6 1008.0 1008.0 11.4
25/06:09am 9.7 6.6 8.9 95 0.4 W 15 17 8 9 1007.6 1007.6 11.4
25/06:00am 9.5 6.4 8.7 95 0.4 W 15 17 8 9 1007.6 1007.6 11.4
25/05:30am 9.4 7.4 8.6 95 0.4 WNW 9 13 5 7 1007.6 1007.6 11.4
25/05:00am 9.7 8.1 8.9 95 0.4 WNW 7 9 4 5 1007.4 1007.4 11.4
25/04:30am 9.4 7.4 8.8 96 0.3 WNW 9 11 5 6 1007.1 1007.1 11.4
25/04:00am 9.0 7.5 8.4 96 0.3 NNW 6 7 3 4 1007.0 1007.0 11.4
25/03:30am 8.9 7.2 8.3 96 0.3 NNW 7 9 4 5 1006.9 1006.9 11.4
25/03:00am 8.9 6.8 8.3 96 0.3 NNW 9 9 5 5 1006.8 1006.7 11.4
25/02:30am 8.9 7.1 8.1 95 0.4 NNW 7 9 4 5 1006.8 1006.7 11.4
25/02:00am 8.9 6.8 8.1 95 0.4 N 9 11 5 6 1006.7 1006.6 11.4
25/01:30am 9.3 7.6 8.5 95 0.4 N 7 9 4 5 1006.7 1006.6 11.4
25/01:00am 9.1 7.0 8.3 95 0.4 N 9 9 5 5 1006.6 1006.5 11.4
25/12:30am 9.2 6.7 8.4 95 0.4 N 11 13 6 7 1006.6 1006.5 11.4
25/12:00am 9.3 7.6 8.5 95 0.4 NNW 7 9 4 5 1006.5 1006.4 11.4
 
Date/Time
EST
Temp
°C
App
Temp
°C
Dew
Point
Rel
Hum
%
Delta-T
°C
Wind Press
QNH
hPa
Press
MSL
hPa
Rain
since 9 am
mm
Dir
 
Spd
km/h
Gust
km/h
Spd
kts
Gust
kts
24/11:30pm 9.5 8.0 8.6 94 0.4 NNW 6 9 3 5 1006.4 1006.3 11.2
24/11:00pm 9.8 7.4 8.7 93 0.5 NNW 11 17 6 9 1006.3 1006.2 11.2
24/10:30pm 10.5 10.4 9.3 92 0.6 CALM 0 9 0 5 1006.4 1006.3 11.2
24/10:00pm 10.4 8.9 9.2 92 0.6 NW 7 9 4 5 1006.3 1006.2 11.2
24/09:30pm 10.7 9.2 9.1 90 0.8 W 7 11 4 6 1006.2 1006.1 11.0
24/09:00pm 10.7 9.2 9.1 90 0.8 NNW 7 11 4 6 1005.9 1005.8 11.0
24/08:30pm 10.9 8.3 9.2 89 0.9 NW 13 17 7 9 1005.7 1005.6 11.0
24/08:00pm 10.8 7.0 9.2 90 0.8 NW 19 26 10 14 1005.8 1005.7 11.0
24/07:30pm 11.2 8.6 9.3 88 1.0 NW 13 19 7 10 1005.6 1005.5 11.0
24/07:00pm 11.5 9.0 9.6 88 1.0 NW 13 19 7 10 1005.1 1005.0 11.0
24/06:30pm 11.5 8.9 9.4 87 1.1 W 13 17 7 9 1004.6 1004.5 11.0
24/06:00pm 11.7 9.6 9.6 87 1.1 W 11 15 6 8 1004.4 1004.3 11.0
24/05:30pm 11.9 8.6 9.6 86 1.2 WNW 17 22 9 12 1004.4 1004.3 11.0
24/05:00pm 11.8 7.7 10.2 90 0.8 W 22 30 12 16 1004.0 1003.9 11.0
24/04:51pm 11.6 6.8 10.3 92 0.7 W 26 35 14 19 1003.9 1003.8 11.0
24/04:45pm 11.5 6.0 10.4 93 0.6 W 30 37 16 20 1003.8 1003.7 11.0
24/04:30pm 10.9 4.7 10.0 94 0.5 W 33 46 18 25 1003.7 1003.6 11.0
24/04:03pm 12.3 6.5 11.5 95 0.4 WNW 33 59 18 32 1003.4 1003.3 7.0
24/04:00pm 12.5 7.3 11.7 95 0.4 WNW 30 46 16 25 1003.5 1003.4 6.6
24/03:55pm 12.6 7.8 11.7 94 0.5 WNW 28 43 15 23 1003.3 1003.2 5.8
24/03:44pm 13.0 8.9 11.6 91 0.7 NW 24 41 13 22 1003.0 1002.9 2.8
24/03:41pm 13.5 10.9 11.9 90 0.9 NW 17 39 9 21 1002.9 1002.8 2.2
24/03:30pm 14.6 14.3 12.8 89 1.0 N 6 9 3 5 1002.6 1002.5 1.4
24/03:00pm 14.6 14.1 12.6 88 1.1 N 7 11 4 6 1002.3 1002.2 1.2
24/02:30pm 16.7 15.4 11.2 70 3.0 N 9 13 5 7 1002.1 1002.0 0.0
24/02:00pm 17.0 15.1 10.6 66 3.4 N 11 15 6 8 1002.4 1002.3 0.0
24/01:30pm 17.1 14.6 11.2 68 3.2 N 15 20 8 11 1002.9 1002.8 0.0
24/01:00pm 16.9 15.3 11.4 70 3.0 NW 11 19 6 10 1003.3 1003.2 0.0
24/12:30pm 16.6 14.4 10.9 69 3.1 NNW 13 20 7 11 1003.7 1003.6 0.0
24/12:00pm 15.6 14.4 11.6 77 2.2 NW 9 15 5 8 1004.3 1004.2 0.0
24/11:30am 15.5 13.8 12.4 82 1.7 NW 13 17 7 9 1004.7 1004.6 0.0
24/11:15am 14.9 13.2 12.4 85 1.4 WNW 13 19 7 10 1004.8 1004.7 0.0
24/11:00am 14.9 13.3 12.9 88 1.1 WNW 13 19 7 10 1004.9 1004.8 0.0
24/10:30am 14.7 12.4 13.1 90 0.9 W 17 22 9 12 1004.9 1004.8 0.0
24/10:29am 14.8 12.6 13.2 90 0.9 W 17 22 9 12 1004.9 1004.8 0.0
24/10:00am 14.0 12.9 13.1 94 0.5 W 11 17 6 9 1005.2 1005.1 0.0
24/09:30am 13.7 11.8 12.9 95 0.4 W 15 20 8 11 1005.3 1005.2 0.0
24/09:22am 13.4 10.6 12.6 95 0.4 W 19 26 10 14 1005.5 1005.4 0.0
24/09:00am 13.3 10.5 12.7 96 0.3 WNW 19 24 10 13 1005.6 1005.5 0.4
24/08:45am 13.2 10.4 12.6 96 0.3 WNW 19 24 10 13 1005.5 1005.4 0.4
24/08:40am 13.3 10.9 12.7 96 0.3 WNW 17 24 9 13 1005.6 1005.5 0.4
24/08:30am 13.5 11.2 12.9 96 0.3 WNW 17 22 9 12 1005.6 1005.5 0.4
24/08:20am 13.4 11.0 12.8 96 0.3 WNW 17 22 9 12 1005.6 1005.5 0.2
24/08:02am 13.4 11.8 12.9 97 0.3 NW 13 17 7 9 1005.6 1005.5 0.0
24/08:00am 13.4 12.2 12.9 97 0.3 NW 11 15 6 8 1005.6 1005.5 0.0
24/07:50am 13.4 12.6 12.9 97 0.3 NW 9 13 5 7 1005.6 1005.5 0.0
24/07:30am 13.3 12.1 12.8 97 0.3 NW 11 15 6 8 1005.6 1005.5 0.0
24/07:07am 13.3 12.5 12.8 97 0.3 WNW 9 13 5 7 1005.5 1005.4 0.0
24/07:00am 13.3 12.5 12.8 97 0.3 W 9 13 5 7 1005.5 1005.4 0.0
24/06:59am 13.3 12.5 12.8 97 0.3 W 9 15 5 8 1005.4 1005.3 0.0
24/06:30am 13.1 12.8 12.6 97 0.3 NW 6 13 3 7 1005.5 1005.4 0.0
24/06:00am 13.2 12.7 12.7 97 0.3 NNW 7 9 4 5 1005.8 1005.7 0.0
24/05:30am 13.5 12.7 13.0 97 0.3 NNW 9 13 5 7 1005.8 1005.7 0.0
24/05:00am 13.6 13.2 13.0 96 0.3 N 7 11 4 6 1005.9 1005.8 0.0
24/04:30am 13.3 14.1 12.7 96 0.3 CALM 0 0 0 0 1006.0 1005.9 0.0
24/04:00am 13.3 14.1 12.7 96 0.3 CALM 0 0 0 0 1006.1 1006.0 0.0
24/03:41am 13.2 13.2 12.4 95 0.4 ESE 4 7 2 4 1006.4 1006.3 0.0
24/03:30am 13.3 12.9 12.5 95 0.4 ESE 6 7 3 4 1006.6 1006.5 0.0
24/03:00am 13.1 13.8 12.3 95 0.4 CALM 0 0 0 0 1007.0 1007.0 0.0
24/02:30am 13.4 14.2 12.5 94 0.5 CALM 0 0 0 0 1007.3 1007.3 0.0
24/02:00am 13.9 14.8 13.0 94 0.5 CALM 0 0 0 0 1007.8 1007.8 0.0
24/01:30am 13.9 14.8 13.0 94 0.5 CALM 0 0 0 0 1008.4 1008.4 0.0
24/01:05am 14.0 14.9 12.9 93 0.6 CALM 0 0 0 0 1008.8 1008.8 0.0
24/01:00am 14.0 14.9 12.9 93 0.6 CALM 0 0 0 0 1008.8 1008.8 0.0
24/12:30am 14.1 15.0 13.0 93 0.6 CALM 0 0 0 0 1009.3 1009.3 0.0
24/12:00am 14.2 15.2 13.1 93 0.6 CALM 0 0 0 0 1009.8 1009.8 0.0
 
Date/Time
EST
Temp
°C
App
Temp
°C
Dew
Point
Rel
Hum
%
Delta-T
°C
Wind Press
QNH
hPa
Press
MSL
hPa
Rain
since 9 am
mm
Dir
 
Spd
km/h
Gust
km/h
Spd
kts
Gust
kts
23/11:30pm 14.2 15.1 12.9 92 0.7 CALM 0 0 0 0 1010.3 1010.3 0.0
23/11:00pm 14.3 14.9 13.0 92 0.7 ESE 2 6 1 3 1010.6 1010.6 0.0
23/10:30pm 14.5 14.4 13.2 92 0.7 ESE 6 7 3 4 1011.1 1011.1 0.0
23/10:19pm 14.6 14.5 13.3 92 0.7 ESE 6 9 3 5 1011.2 1011.2 0.0
23/10:00pm 14.7 14.6 13.4 92 0.7 ESE 6 7 3 4 1011.5 1011.5 0.0
23/09:30pm 14.8 14.5 13.3 91 0.8 E 7 9 4 5 1011.9 1011.9 0.0
23/09:00pm 14.8 15.0 13.2 90 0.9 E 4 7 2 4 1012.1 1012.1 0.0
23/08:30pm 14.8 14.0 13.0 89 1.0 ESE 9 13 5 7 1012.2 1012.2 0.0
23/08:00pm 14.7 13.9 12.9 89 1.0 ESE 9 17 5 9 1012.7 1012.6 0.0
23/07:30pm 14.8 14.0 13.0 89 1.0 ESE 9 15 5 8 1012.6 1012.5 0.0
23/07:00pm 14.7 13.5 12.9 89 1.0 ESE 11 19 6 10 1012.6 1012.5 0.0
23/06:44pm 14.7 13.1 12.9 89 1.0 ESE 13 17 7 9 1012.8 1012.7 0.0
23/06:43pm 14.7 13.1 12.9 89 1.0 ESE 13 19 7 10 1012.8 1012.7 0.0
23/06:30pm 14.7 12.8 12.9 89 1.0 ESE 15 19 8 10 1012.7 1012.6 0.0
23/06:00pm 14.7 13.1 12.9 89 1.0 SE 13 19 7 10 1013.0 1012.9 0.0
23/05:30pm 14.8 12.8 12.8 88 1.1 ESE 15 22 8 12 1013.1 1013.0 0.0
23/05:00pm 14.8 12.8 12.8 88 1.1 ESE 15 20 8 11 1013.7 1013.6 0.0
23/04:30pm 14.8 13.3 13.0 89 1.0 ESE 13 20 7 11 1013.9 1013.8 0.0
23/04:16pm 14.8 13.7 13.2 90 0.9 ESE 11 17 6 9 1014.0 1013.9 0.0
23/04:02pm 14.9 13.8 13.1 89 1.0 ESE 11 19 6 10 1014.3 1014.2 0.0
23/04:00pm 14.9 13.7 12.9 88 1.1 ESE 11 19 6 10 1014.3 1014.2 0.0
23/03:30pm 15.2 14.0 12.9 86 1.3 ESE 11 17 6 9 1014.8 1014.7 0.0
23/03:00pm 15.3 13.8 13.0 86 1.3 ESE 13 22 7 12 1014.9 1014.8 0.0
23/02:30pm 15.3 13.3 12.8 85 1.4 ESE 15 22 8 12 1015.4 1015.3 0.0
23/02:00pm 15.6 13.2 12.7 83 1.6 ESE 17 26 9 14 1015.4 1015.3 0.0
23/01:30pm 15.9 14.3 12.8 82 1.7 ESE 13 20 7 11 1016.2 1016.1 0.0
23/01:00pm 15.9 13.9 12.8 82 1.7 ESE 15 24 8 13 1016.5 1016.4 0.0
23/12:30pm 15.9 13.1 12.6 81 1.8 ESE 19 26 10 14 1017.2 1017.1 0.0
23/12:00pm 16.1 13.4 13.0 82 1.7 ESE 19 30 10 16 1017.6 1017.6 0.0
23/11:30am 15.7 12.9 12.6 82 1.7 ESE 19 26 10 14 1018.2 1018.2 0.0
23/11:00am 15.5 12.8 12.8 84 1.5 ESE 19 28 10 15 1018.7 1018.7 0.0
23/10:30am 15.8 13.2 13.1 84 1.5 ESE 19 30 10 16 1019.1 1019.1 0.0
23/10:00am 15.4 12.7 12.9 85 1.4 ESE 19 28 10 15 1019.3 1019.3 0.0
23/09:30am 15.3 12.9 12.8 85 1.4 ESE 17 28 9 15 1019.5 1019.5 0.0
23/09:00am 14.9 12.5 12.6 86 1.3 ESE 17 30 9 16 1019.7 1019.7 0.0
23/08:30am 14.5 12.5 12.7 89 1.0 ESE 15 24 8 13 1019.8 1019.8 0.0
23/08:00am 14.4 12.4 12.8 90 0.9 ESE 15 24 8 13 1020.2 1020.2 0.0

Other Formats:

Comma delimited format used in spreadsheet applications
http://www.bom.gov.au/fwo/IDV60801/IDV60801.94828.axf

JavaScript Object Notation format (JSON) in row-major order
http://www.bom.gov.au/fwo/IDV60801/IDV60801.94828.json